Ana Sayfa
METAR-TAF:

METAR-TAF

Havaalanları :

Beyrut, Lübnan

Enlem: 33-49N, Boylam: 035-29E, yükseklik: 29 m

Güncel hava durumu gözlemi

Rapor saat 13:00 UTC de 46 dakika önce yapıldı.
Rüzgar batı/güneybatıdan 8 kt
Sıcaklık 30°C
Nem 62%
Basınç 1010 hPa
Görüş mesafesi: 8000 m
2700 ft yükseklikte az bulutlu

METAR: OLBA 161300Z 25008KT 8000 FEW027 30/22 Q1010 NOSIG

Saat: 16:46 (13:46 UTC)

Tahmin

Rapor saat 10:00 UTC de 3 saat ve 46 dakika önce yapıldı.
Ayın 16'si saat 12 UTC'den ayın 17'si saat 18 UTC'ye kadar geçerli Tahmin
Rüzgar batı/güneybatıdan 12 kt
Görüş mesafesi: 8000 m
2600 ft yükseklikte parçalı bulutlu
Geçici
ayın 16'si saat 18 UTC'den ayın 17'si saat 06 UTC'ye kadar
Görüş mesafesi: 5000 m
Pus

TAF: OLBA 161000Z 1612/1718 24012KT 8000 SCT026 TEMPO 1618/1706 5000 BR

4.000'den fazla havaalanı için hava durumu gözlemleri ve tahminleri (METAR ve TAF raporları).

Kullanılabilir istasyonlar harita üzerinde sarı ve kırmızı noktalarla gösterilir.

İstasyonun adını görmek için fareyi noktanın üzerinde gezdirin.

Sonrasında hava gözlem ve tahminlerini görmek için tıklayın.

Haritayı değiştirmek için: yaklaştırmak için siyah artı işaretli yeşil düğmeye ve uzaklaştırmak için de eksi işaretli düğmeye hızla tıklayın; bitişik haritalar için yeşil okları kullanın.


METAR-TAF: